sensor_id;sensor_type;location;lat;lon;timestamp;temperature;humidity
18392;DHT22;9322;50.932;5.318;2024-03-23T00:55:55;7.90;1.40
18392;DHT22;9322;50.932;5.318;2024-03-23T00:58:21;8.00;1.40
18392;DHT22;9322;50.932;5.318;2024-03-23T01:00:47;8.00;1.40
18392;DHT22;9322;50.932;5.318;2024-03-23T01:03:13;8.00;1.40
18392;DHT22;9322;50.932;5.318;2024-03-23T01:05:38;8.00;1.40
18392;DHT22;9322;50.932;5.318;2024-03-23T01:08:04;8.00;1.40
18392;DHT22;9322;50.932;5.318;2024-03-23T01:10:30;8.00;1.40
18392;DHT22;9322;50.932;5.318;2024-03-23T01:12:56;8.00;1.40
18392;DHT22;9322;50.932;5.318;2024-03-23T01:15:22;8.00;1.40
18392;DHT22;9322;50.932;5.318;2024-03-23T01:17:48;7.90;1.40
18392;DHT22;9322;50.932;5.318;2024-03-23T01:20:13;8.00;1.40
18392;DHT22;9322;50.932;5.318;2024-03-23T01:22:39;8.00;1.40
18392;DHT22;9322;50.932;5.318;2024-03-23T01:25:05;7.90;1.40
18392;DHT22;9322;50.932;5.318;2024-03-23T01:27:31;7.90;1.40
18392;DHT22;9322;50.932;5.318;2024-03-23T01:29:57;7.80;1.40
18392;DHT22;9322;50.932;5.318;2024-03-23T01:32:22;7.80;1.40
18392;DHT22;9322;50.932;5.318;2024-03-23T01:34:48;7.80;1.40
18392;DHT22;9322;50.932;5.318;2024-03-23T01:37:14;7.80;1.40
18392;DHT22;9322;50.932;5.318;2024-03-23T01:39:40;7.60;1.40
18392;DHT22;9322;50.932;5.318;2024-03-23T01:42:06;7.70;1.40
18392;DHT22;9322;50.932;5.318;2024-03-23T01:44:32;7.80;1.40
18392;DHT22;9322;50.932;5.318;2024-03-23T01:46:57;7.80;1.40
18392;DHT22;9322;50.932;5.318;2024-03-23T01:49:23;7.60;1.40
18392;DHT22;9322;50.932;5.318;2024-03-23T01:51:49;7.40;1.40
18392;DHT22;9322;50.932;5.318;2024-03-23T01:54:15;7.30;1.40
18392;DHT22;9322;50.932;5.318;2024-03-23T01:56:41;7.40;1.40
18392;DHT22;9322;50.932;5.318;2024-03-23T01:59:07;7.50;1.40
18392;DHT22;9322;50.932;5.318;2024-03-23T02:01:36;7.50;1.40
18392;DHT22;9322;50.932;5.318;2024-03-23T02:04:02;7.50;1.40
18392;DHT22;9322;50.932;5.318;2024-03-23T02:06:28;7.50;1.40
18392;DHT22;9322;50.932;5.318;2024-03-23T02:08:54;7.50;1.40
18392;DHT22;9322;50.932;5.318;2024-03-23T02:11:20;7.50;1.40
18392;DHT22;9322;50.932;5.318;2024-03-23T02:13:46;7.50;1.40
18392;DHT22;9322;50.932;5.318;2024-03-23T02:16:12;7.50;1.40
18392;DHT22;9322;50.932;5.318;2024-03-23T02:18:39;7.50;1.40
18392;DHT22;9322;50.932;5.318;2024-03-23T02:21:05;7.60;1.40
18392;DHT22;9322;50.932;5.318;2024-03-23T02:23:31;7.70;1.40
18392;DHT22;9322;50.932;5.318;2024-03-23T02:25:57;7.70;1.40
18392;DHT22;9322;50.932;5.318;2024-03-23T02:28:23;7.70;1.40
18392;DHT22;9322;50.932;5.318;2024-03-23T02:30:49;7.70;1.40
18392;DHT22;9322;50.932;5.318;2024-03-23T02:33:15;7.60;1.40
18392;DHT22;9322;50.932;5.318;2024-03-23T02:35:41;7.60;1.40
18392;DHT22;9322;50.932;5.318;2024-03-23T02:38:07;7.50;1.40
18392;DHT22;9322;50.932;5.318;2024-03-23T02:40:33;7.40;1.40
18392;DHT22;9322;50.932;5.318;2024-03-23T02:42:58;7.40;1.40
18392;DHT22;9322;50.932;5.318;2024-03-23T02:45:24;7.30;1.40
18392;DHT22;9322;50.932;5.318;2024-03-23T02:47:50;7.40;1.40
18392;DHT22;9322;50.932;5.318;2024-03-23T02:50:18;7.30;1.40
18392;DHT22;9322;50.932;5.318;2024-03-23T02:52:44;7.30;1.40
18392;DHT22;9322;50.932;5.318;2024-03-23T02:55:10;7.30;1.40
18392;DHT22;9322;50.932;5.318;2024-03-23T02:57:36;7.30;1.40
18392;DHT22;9322;50.932;5.318;2024-03-23T03:00:02;7.20;1.40
18392;DHT22;9322;50.932;5.318;2024-03-23T03:02:28;7.30;1.40
18392;DHT22;9322;50.932;5.318;2024-03-23T03:04:53;7.30;1.40
18392;DHT22;9322;50.932;5.318;2024-03-23T03:07:19;7.30;1.40
18392;DHT22;9322;50.932;5.318;2024-03-23T03:09:45;7.30;1.40
18392;DHT22;9322;50.932;5.318;2024-03-23T03:12:11;7.30;1.40
18392;DHT22;9322;50.932;5.318;2024-03-23T03:14:37;7.30;1.40
18392;DHT22;9322;50.932;5.318;2024-03-23T03:17:03;7.30;1.40
18392;DHT22;9322;50.932;5.318;2024-03-23T03:19:29;7.40;1.40
18392;DHT22;9322;50.932;5.318;2024-03-23T03:21:55;7.40;1.40
18392;DHT22;9322;50.932;5.318;2024-03-23T03:24:21;7.40;1.40
18392;DHT22;9322;50.932;5.318;2024-03-23T03:26:46;7.40;1.40
18392;DHT22;9322;50.932;5.318;2024-03-23T03:29:12;7.40;1.40
18392;DHT22;9322;50.932;5.318;2024-03-23T03:31:41;7.50;1.40
18392;DHT22;9322;50.932;5.318;2024-03-23T03:34:08;7.40;1.40
18392;DHT22;9322;50.932;5.318;2024-03-23T03:36:33;7.30;1.40
18392;DHT22;9322;50.932;5.318;2024-03-23T03:38:59;7.30;1.40
18392;DHT22;9322;50.932;5.318;2024-03-23T03:41:25;7.30;1.40
18392;DHT22;9322;50.932;5.318;2024-03-23T03:43:51;7.40;1.40
18392;DHT22;9322;50.932;5.318;2024-03-23T03:46:17;7.50;1.40
18392;DHT22;9322;50.932;5.318;2024-03-23T03:48:42;7.50;1.40
18392;DHT22;9322;50.932;5.318;2024-03-23T03:51:10;7.40;1.40
18392;DHT22;9322;50.932;5.318;2024-03-23T03:53:36;7.30;1.40
18392;DHT22;9322;50.932;5.318;2024-03-23T03:56:02;7.20;1.40
18392;DHT22;9322;50.932;5.318;2024-03-23T03:58:28;7.30;1.40
18392;DHT22;9322;50.932;5.318;2024-03-23T04:00:54;7.20;1.40
18392;DHT22;9322;50.932;5.318;2024-03-23T04:03:21;7.20;1.40
18392;DHT22;9322;50.932;5.318;2024-03-23T04:05:54;7.20;1.40
18392;DHT22;9322;50.932;5.318;2024-03-23T04:08:20;7.20;1.40
18392;DHT22;9322;50.932;5.318;2024-03-23T04:10:47;7.20;1.40
18392;DHT22;9322;50.932;5.318;2024-03-23T04:13:13;7.20;1.40
18392;DHT22;9322;50.932;5.318;2024-03-23T04:15:39;7.10;1.40
18392;DHT22;9322;50.932;5.318;2024-03-23T04:18:06;7.10;1.40
18392;DHT22;9322;50.932;5.318;2024-03-23T04:20:32;7.10;1.40
18392;DHT22;9322;50.932;5.318;2024-03-23T04:22:58;7.10;1.40
18392;DHT22;9322;50.932;5.318;2024-03-23T04:25:24;7.00;1.40
18392;DHT22;9322;50.932;5.318;2024-03-23T04:27:50;7.00;1.40
18392;DHT22;9322;50.932;5.318;2024-03-23T04:30:17;6.90;1.40
18392;DHT22;9322;50.932;5.318;2024-03-23T04:32:43;7.00;1.40
18392;DHT22;9322;50.932;5.318;2024-03-23T04:35:09;6.90;1.40
18392;DHT22;9322;50.932;5.318;2024-03-23T04:37:38;6.90;1.40
18392;DHT22;9322;50.932;5.318;2024-03-23T04:40:07;6.80;1.40
18392;DHT22;9322;50.932;5.318;2024-03-23T04:42:33;6.70;1.40
18392;DHT22;9322;50.932;5.318;2024-03-23T04:45:00;6.70;1.40
18392;DHT22;9322;50.932;5.318;2024-03-23T04:47:26;6.60;1.40
18392;DHT22;9322;50.932;5.318;2024-03-23T04:49:51;6.60;1.40
18392;DHT22;9322;50.932;5.318;2024-03-23T04:52:17;6.60;1.40
18392;DHT22;9322;50.932;5.318;2024-03-23T04:54:44;6.60;1.40
18392;DHT22;9322;50.932;5.318;2024-03-23T04:57:11;6.60;1.40
18392;DHT22;9322;50.932;5.318;2024-03-23T04:59:37;6.50;1.40
18392;DHT22;9322;50.932;5.318;2024-03-23T05:02:02;6.50;1.40
18392;DHT22;9322;50.932;5.318;2024-03-23T05:04:28;6.50;1.40
18392;DHT22;9322;50.932;5.318;2024-03-23T05:06:54;6.60;1.40
18392;DHT22;9322;50.932;5.318;2024-03-23T05:09:20;6.60;1.40
18392;DHT22;9322;50.932;5.318;2024-03-23T05:11:46;6.50;1.40
18392;DHT22;9322;50.932;5.318;2024-03-23T05:14:14;6.60;1.40
18392;DHT22;9322;50.932;5.318;2024-03-23T05:16:40;6.60;1.40
18392;DHT22;9322;50.932;5.318;2024-03-23T05:19:06;6.60;1.40
18392;DHT22;9322;50.932;5.318;2024-03-23T05:21:32;6.50;1.40
18392;DHT22;9322;50.932;5.318;2024-03-23T05:23:58;6.50;1.40
18392;DHT22;9322;50.932;5.318;2024-03-23T05:26:24;6.60;1.40
18392;DHT22;9322;50.932;5.318;2024-03-23T05:28:49;6.60;1.40
18392;DHT22;9322;50.932;5.318;2024-03-23T05:31:29;6.70;1.40
18392;DHT22;9322;50.932;5.318;2024-03-23T05:33:55;6.70;1.40
18392;DHT22;9322;50.932;5.318;2024-03-23T05:36:21;6.80;1.40
18392;DHT22;9322;50.932;5.318;2024-03-23T05:38:47;6.90;1.40
18392;DHT22;9322;50.932;5.318;2024-03-23T05:41:13;6.90;1.40
18392;DHT22;9322;50.932;5.318;2024-03-23T05:43:39;7.00;1.40
18392;DHT22;9322;50.932;5.318;2024-03-23T05:46:05;7.00;1.40
18392;DHT22;9322;50.932;5.318;2024-03-23T05:48:31;7.00;1.40
18392;DHT22;9322;50.932;5.318;2024-03-23T05:50:57;7.00;1.40
18392;DHT22;9322;50.932;5.318;2024-03-23T05:53:24;7.10;1.40
18392;DHT22;9322;50.932;5.318;2024-03-23T05:55:50;7.20;1.40
18392;DHT22;9322;50.932;5.318;2024-03-23T05:58:17;7.20;1.40
18392;DHT22;9322;50.932;5.318;2024-03-23T06:00:44;7.20;1.40
18392;DHT22;9322;50.932;5.318;2024-03-23T06:03:10;7.40;1.40
18392;DHT22;9322;50.932;5.318;2024-03-23T06:05:36;7.40;1.40
18392;DHT22;9322;50.932;5.318;2024-03-23T06:08:03;7.60;1.40
18392;DHT22;9322;50.932;5.318;2024-03-23T06:10:29;7.80;1.40
18392;DHT22;9322;50.932;5.318;2024-03-23T06:12:54;7.80;1.40
18392;DHT22;9322;50.932;5.318;2024-03-23T06:15:21;7.80;1.40
18392;DHT22;9322;50.932;5.318;2024-03-23T06:17:48;7.70;1.40
18392;DHT22;9322;50.932;5.318;2024-03-23T06:20:14;7.70;1.40
18392;DHT22;9322;50.932;5.318;2024-03-23T06:22:40;7.70;1.40
18392;DHT22;9322;50.932;5.318;2024-03-23T06:25:06;7.80;1.40
18392;DHT22;9322;50.932;5.318;2024-03-23T06:27:32;7.70;1.40
18392;DHT22;9322;50.932;5.318;2024-03-23T06:29:59;7.80;1.40
18392;DHT22;9322;50.932;5.318;2024-03-23T06:32:25;7.80;1.40
18392;DHT22;9322;50.932;5.318;2024-03-23T06:34:51;7.80;1.40
18392;DHT22;9322;50.932;5.318;2024-03-23T06:37:17;7.70;1.40
18392;DHT22;9322;50.932;5.318;2024-03-23T06:39:43;7.80;1.40
18392;DHT22;9322;50.932;5.318;2024-03-23T06:42:11;8.30;1.40
18392;DHT22;9322;50.932;5.318;2024-03-23T06:44:37;9.10;1.40
18392;DHT22;9322;50.932;5.318;2024-03-23T06:47:02;10.10;1.40
18392;DHT22;9322;50.932;5.318;2024-03-23T06:49:28;10.90;1.40
18392;DHT22;9322;50.932;5.318;2024-03-23T06:51:54;11.80;1.40
18392;DHT22;9322;50.932;5.318;2024-03-23T06:54:20;12.40;1.40
18392;DHT22;9322;50.932;5.318;2024-03-23T06:56:45;12.60;1.40
18392;DHT22;9322;50.932;5.318;2024-03-23T06:59:11;12.80;1.40
18392;DHT22;9322;50.932;5.318;2024-03-23T07:01:37;12.30;1.40
18392;DHT22;9322;50.932;5.318;2024-03-23T07:04:04;12.30;1.40
18392;DHT22;9322;50.932;5.318;2024-03-23T07:06:30;11.60;1.40
18392;DHT22;9322;50.932;5.318;2024-03-23T07:08:56;11.00;1.40
18392;DHT22;9322;50.932;5.318;2024-03-23T07:11:23;10.50;1.40
18392;DHT22;9322;50.932;5.318;2024-03-23T07:13:52;10.10;1.40
18392;DHT22;9322;50.932;5.318;2024-03-23T07:16:20;10.00;1.40
18392;DHT22;9322;50.932;5.318;2024-03-23T07:18:46;10.70;1.40
18392;DHT22;9322;50.932;5.318;2024-03-23T07:21:12;12.10;1.40
18392;DHT22;9322;50.932;5.318;2024-03-23T07:23:38;13.70;1.40
18392;DHT22;9322;50.932;5.318;2024-03-23T07:26:07;14.90;1.40
18392;DHT22;9322;50.932;5.318;2024-03-23T07:28:33;15.10;1.40
18392;DHT22;9322;50.932;5.318;2024-03-23T07:33:30;13.80;1.40
18392;DHT22;9322;50.932;5.318;2024-03-23T07:35:56;12.90;1.40
18392;DHT22;9322;50.932;5.318;2024-03-23T07:38:21;12.30;1.40
18392;DHT22;9322;50.932;5.318;2024-03-23T07:40:47;11.60;1.40
18392;DHT22;9322;50.932;5.318;2024-03-23T07:43:15;10.90;1.40
18392;DHT22;9322;50.932;5.318;2024-03-23T07:45:41;10.40;1.40
18392;DHT22;9322;50.932;5.318;2024-03-23T07:48:07;10.30;1.40
18392;DHT22;9322;50.932;5.318;2024-03-23T07:50:33;10.30;1.40
18392;DHT22;9322;50.932;5.318;2024-03-23T07:52:58;10.10;1.40
18392;DHT22;9322;50.932;5.318;2024-03-23T07:55:24;10.10;1.40
18392;DHT22;9322;50.932;5.318;2024-03-23T07:57:51;11.40;1.40
18392;DHT22;9322;50.932;5.318;2024-03-23T08:00:18;13.50;1.40
18392;DHT22;9322;50.932;5.318;2024-03-23T08:02:43;14.60;1.40
18392;DHT22;9322;50.932;5.318;2024-03-23T08:05:09;15.10;1.40
18392;DHT22;9322;50.932;5.318;2024-03-23T08:07:35;15.20;1.40
18392;DHT22;9322;50.932;5.318;2024-03-23T08:10:00;14.90;1.40
18392;DHT22;9322;50.932;5.318;2024-03-23T08:12:28;14.40;1.40
18392;DHT22;9322;50.932;5.318;2024-03-23T08:14:54;13.50;1.40
18392;DHT22;9322;50.932;5.318;2024-03-23T08:17:20;12.40;1.40
18392;DHT22;9322;50.932;5.318;2024-03-23T08:19:45;11.40;1.40
18392;DHT22;9322;50.932;5.318;2024-03-23T08:22:11;11.00;1.40
18392;DHT22;9322;50.932;5.318;2024-03-23T08:24:37;10.70;1.40
18392;DHT22;9322;50.932;5.318;2024-03-23T08:27:02;11.00;1.40
18392;DHT22;9322;50.932;5.318;2024-03-23T08:29:30;11.10;1.40
18392;DHT22;9322;50.932;5.318;2024-03-23T08:31:55;10.80;1.40
18392;DHT22;9322;50.932;5.318;2024-03-23T08:34:21;11.10;1.40
18392;DHT22;9322;50.932;5.318;2024-03-23T08:36:47;11.90;1.40
18392;DHT22;9322;50.932;5.318;2024-03-23T08:39:12;11.70;1.40
18392;DHT22;9322;50.932;5.318;2024-03-23T08:41:38;11.80;1.40
18392;DHT22;9322;50.932;5.318;2024-03-23T08:44:04;13.10;1.40
18392;DHT22;9322;50.932;5.318;2024-03-23T08:46:30;13.40;1.40
18392;DHT22;9322;50.932;5.318;2024-03-23T08:48:55;13.50;1.40
18392;DHT22;9322;50.932;5.318;2024-03-23T08:51:21;14.30;1.40
18392;DHT22;9322;50.932;5.318;2024-03-23T08:53:47;14.90;1.40
18392;DHT22;9322;50.932;5.318;2024-03-23T08:56:13;14.80;1.40
18392;DHT22;9322;50.932;5.318;2024-03-23T08:58:39;14.30;1.40
18392;DHT22;9322;50.932;5.318;2024-03-23T09:01:08;14.20;1.40
18392;DHT22;9322;50.932;5.318;2024-03-23T09:03:34;15.20;1.40
18392;DHT22;9322;50.932;5.318;2024-03-23T09:06:02;15.50;1.40
18392;DHT22;9322;50.932;5.318;2024-03-23T09:08:27;15.60;1.40
18392;DHT22;9322;50.932;5.318;2024-03-23T09:10:53;16.30;1.40
18392;DHT22;9322;50.932;5.318;2024-03-23T09:13:19;16.40;1.40
18392;DHT22;9322;50.932;5.318;2024-03-23T09:15:47;16.70;1.40
18392;DHT22;9322;50.932;5.318;2024-03-23T09:18:13;15.40;1.40
18392;DHT22;9322;50.932;5.318;2024-03-23T09:20:38;14.50;1.40
18392;DHT22;9322;50.932;5.318;2024-03-23T09:23:04;14.50;1.40
18392;DHT22;9322;50.932;5.318;2024-03-23T09:25:30;14.30;1.40
18392;DHT22;9322;50.932;5.318;2024-03-23T09:27:55;14.70;1.40
18392;DHT22;9322;50.932;5.318;2024-03-23T09:30:21;14.30;1.40
18392;DHT22;9322;50.932;5.318;2024-03-23T09:32:48;12.90;1.40
18392;DHT22;9322;50.932;5.318;2024-03-23T09:35:14;12.00;1.40
18392;DHT22;9322;50.932;5.318;2024-03-23T09:37:40;11.90;1.40
18392;DHT22;9322;50.932;5.318;2024-03-23T09:40:10;11.80;1.40
18392;DHT22;9322;50.932;5.318;2024-03-23T09:42:36;12.80;1.40
18392;DHT22;9322;50.932;5.318;2024-03-23T09:45:02;14.00;1.40
18392;DHT22;9322;50.932;5.318;2024-03-23T09:47:28;14.80;1.40
18392;DHT22;9322;50.932;5.318;2024-03-23T09:49:54;14.60;1.40
18392;DHT22;9322;50.932;5.318;2024-03-23T09:52:20;14.30;1.40
18392;DHT22;9322;50.932;5.318;2024-03-23T09:54:46;13.80;1.40
18392;DHT22;9322;50.932;5.318;2024-03-23T09:57:11;12.80;1.40
18392;DHT22;9322;50.932;5.318;2024-03-23T09:59:37;11.50;1.40
18392;DHT22;9322;50.932;5.318;2024-03-23T10:02:04;10.70;1.40
18392;DHT22;9322;50.932;5.318;2024-03-23T10:04:41;10.50;1.40
18392;DHT22;9322;50.932;5.318;2024-03-23T10:07:19;10.40;1.40
18392;DHT22;9322;50.932;5.318;2024-03-23T10:09:45;10.30;1.40
18392;DHT22;9322;50.932;5.318;2024-03-23T10:12:13;10.50;1.40
18392;DHT22;9322;50.932;5.318;2024-03-23T10:14:40;11.20;1.40
18392;DHT22;9322;50.932;5.318;2024-03-23T10:17:22;13.20;1.40
18392;DHT22;9322;50.932;5.318;2024-03-23T10:19:52;14.60;1.40
18392;DHT22;9322;50.932;5.318;2024-03-23T10:22:22;14.70;1.40
18392;DHT22;9322;50.932;5.318;2024-03-23T10:24:49;15.70;1.40
18392;DHT22;9322;50.932;5.318;2024-03-23T10:27:21;16.40;1.40
18392;DHT22;9322;50.932;5.318;2024-03-23T10:29:50;16.70;1.40
18392;DHT22;9322;50.932;5.318;2024-03-23T10:32:17;17.00;1.40
18392;DHT22;9322;50.932;5.318;2024-03-23T10:34:44;17.30;1.40
18392;DHT22;9322;50.932;5.318;2024-03-23T10:37:10;16.90;1.40
18392;DHT22;9322;50.932;5.318;2024-03-23T10:39:42;16.40;1.40
18392;DHT22;9322;50.932;5.318;2024-03-23T10:42:09;15.70;1.40
18392;DHT22;9322;50.932;5.318;2024-03-23T10:44:38;16.50;1.40
18392;DHT22;9322;50.932;5.318;2024-03-23T10:47:05;16.10;1.40
18392;DHT22;9322;50.932;5.318;2024-03-23T10:49:32;14.70;1.40
18392;DHT22;9322;50.932;5.318;2024-03-23T10:51:59;13.20;1.40
18392;DHT22;9322;50.932;5.318;2024-03-23T10:54:25;11.90;1.40
18392;DHT22;9322;50.932;5.318;2024-03-23T10:57:06;10.90;1.40
18392;DHT22;9322;50.932;5.318;2024-03-23T10:59:35;9.80;1.40
18392;DHT22;9322;50.932;5.318;2024-03-23T11:02:02;9.00;1.40
18392;DHT22;9322;50.932;5.318;2024-03-23T11:04:33;8.80;1.40
18392;DHT22;9322;50.932;5.318;2024-03-23T11:06:59;9.00;1.40
18392;DHT22;9322;50.932;5.318;2024-03-23T11:09:43;9.10;1.40
18392;DHT22;9322;50.932;5.318;2024-03-23T11:14:51;10.30;1.40
18392;DHT22;9322;50.932;5.318;2024-03-23T11:17:24;11.60;1.40
18392;DHT22;9322;50.932;5.318;2024-03-23T11:20:01;12.00;1.40
18392;DHT22;9322;50.932;5.318;2024-03-23T11:22:46;11.30;1.40
18392;DHT22;9322;50.932;5.318;2024-03-23T11:27:38;10.60;1.40
18392;DHT22;9322;50.932;5.318;2024-03-23T11:30:14;10.70;1.40
18392;DHT22;9322;50.932;5.318;2024-03-23T11:32:42;11.40;1.40
18392;DHT22;9322;50.932;5.318;2024-03-23T11:35:08;13.00;1.40
18392;DHT22;9322;50.932;5.318;2024-03-23T11:37:36;13.90;1.40
18392;DHT22;9322;50.932;5.318;2024-03-23T11:40:17;13.50;1.40
18392;DHT22;9322;50.932;5.318;2024-03-23T11:42:43;12.60;1.40
18392;DHT22;9322;50.932;5.318;2024-03-23T11:45:09;12.20;1.40
18392;DHT22;9322;50.932;5.318;2024-03-23T11:47:35;11.80;1.40
18392;DHT22;9322;50.932;5.318;2024-03-23T11:50:01;11.80;1.40
18392;DHT22;9322;50.932;5.318;2024-03-23T11:52:27;11.80;1.40
18392;DHT22;9322;50.932;5.318;2024-03-23T11:55:03;11.40;1.40
18392;DHT22;9322;50.932;5.318;2024-03-23T11:57:29;11.00;1.40
18392;DHT22;9322;50.932;5.318;2024-03-23T11:59:55;11.50;1.40
18392;DHT22;9322;50.932;5.318;2024-03-23T12:02:21;11.40;1.40
18392;DHT22;9322;50.932;5.318;2024-03-23T12:04:47;10.30;1.40
18392;DHT22;9322;50.932;5.318;2024-03-23T12:07:19;9.60;1.40
18392;DHT22;9322;50.932;5.318;2024-03-23T12:10:19;9.30;1.40
18392;DHT22;9322;50.932;5.318;2024-03-23T12:12:44;8.70;1.40
18392;DHT22;9322;50.932;5.318;2024-03-23T12:15:10;8.70;1.40
18392;DHT22;9322;50.932;5.318;2024-03-23T12:17:38;8.90;1.40
18392;DHT22;9322;50.932;5.318;2024-03-23T12:20:04;9.50;1.40
18392;DHT22;9322;50.932;5.318;2024-03-23T12:22:30;10.80;1.40
18392;DHT22;9322;50.932;5.318;2024-03-23T12:24:56;12.50;1.40
18392;DHT22;9322;50.932;5.318;2024-03-23T12:27:22;13.60;1.40
18392;DHT22;9322;50.932;5.318;2024-03-23T12:29:48;14.20;1.40
18392;DHT22;9322;50.932;5.318;2024-03-23T12:32:14;14.10;1.40
18392;DHT22;9322;50.932;5.318;2024-03-23T12:34:41;13.40;1.40
18392;DHT22;9322;50.932;5.318;2024-03-23T12:37:07;13.10;1.40
18392;DHT22;9322;50.932;5.318;2024-03-23T12:39:34;12.70;1.40
18392;DHT22;9322;50.932;5.318;2024-03-23T12:42:01;12.50;1.40
18392;DHT22;9322;50.932;5.318;2024-03-23T12:44:30;12.20;1.40
18392;DHT22;9322;50.932;5.318;2024-03-23T12:46:56;11.90;1.40
18392;DHT22;9322;50.932;5.318;2024-03-23T12:49:22;11.60;1.40
18392;DHT22;9322;50.932;5.318;2024-03-23T12:51:54;11.60;1.40
18392;DHT22;9322;50.932;5.318;2024-03-23T12:54:23;11.60;1.40
18392;DHT22;9322;50.932;5.318;2024-03-23T12:56:50;11.50;1.40
18392;DHT22;9322;50.932;5.318;2024-03-23T12:59:16;11.30;1.40
18392;DHT22;9322;50.932;5.318;2024-03-23T13:01:42;11.00;1.40
18392;DHT22;9322;50.932;5.318;2024-03-23T13:04:09;10.40;1.40
18392;DHT22;9322;50.932;5.318;2024-03-23T13:06:35;9.90;1.40
18392;DHT22;9322;50.932;5.318;2024-03-23T13:09:01;9.50;1.40
18392;DHT22;9322;50.932;5.318;2024-03-23T13:11:27;9.50;1.40
18392;DHT22;9322;50.932;5.318;2024-03-23T13:13:54;9.70;1.40
18392;DHT22;9322;50.932;5.318;2024-03-23T13:16:20;10.00;1.40
18392;DHT22;9322;50.932;5.318;2024-03-23T13:18:46;10.40;1.40
18392;DHT22;9322;50.932;5.318;2024-03-23T13:21:12;10.60;1.40
18392;DHT22;9322;50.932;5.318;2024-03-23T13:23:37;10.70;1.40
18392;DHT22;9322;50.932;5.318;2024-03-23T13:26:07;10.50;1.40
18392;DHT22;9322;50.932;5.318;2024-03-23T13:28:33;10.10;1.40
18392;DHT22;9322;50.932;5.318;2024-03-23T13:30:59;9.90;99.90
18392;DHT22;9322;50.932;5.318;2024-03-23T13:33:29;9.30;1.40
18392;DHT22;9322;50.932;5.318;2024-03-23T13:35:55;9.40;1.40
18392;DHT22;9322;50.932;5.318;2024-03-23T13:38:25;9.60;1.40
18392;DHT22;9322;50.932;5.318;2024-03-23T13:40:59;10.10;1.40
18392;DHT22;9322;50.932;5.318;2024-03-23T13:43:25;10.80;1.40
18392;DHT22;9322;50.932;5.318;2024-03-23T13:45:56;10.90;1.40
18392;DHT22;9322;50.932;5.318;2024-03-23T13:48:23;11.50;1.40
18392;DHT22;9322;50.932;5.318;2024-03-23T13:51:02;11.50;1.40
18392;DHT22;9322;50.932;5.318;2024-03-23T13:53:29;11.50;1.40
18392;DHT22;9322;50.932;5.318;2024-03-23T13:55:54;11.60;1.40
18392;DHT22;9322;50.932;5.318;2024-03-23T13:58:20;11.70;1.40
18392;DHT22;9322;50.932;5.318;2024-03-23T14:00:46;11.50;1.40
18392;DHT22;9322;50.932;5.318;2024-03-23T14:03:13;11.40;1.40
18392;DHT22;9322;50.932;5.318;2024-03-23T14:05:40;11.10;1.40
18392;DHT22;9322;50.932;5.318;2024-03-23T14:08:09;10.90;1.40
18392;DHT22;9322;50.932;5.318;2024-03-23T14:10:36;10.90;1.40
18392;DHT22;9322;50.932;5.318;2024-03-23T14:13:02;11.00;1.40
18392;DHT22;9322;50.932;5.318;2024-03-23T14:15:30;10.70;1.40
18392;DHT22;9322;50.932;5.318;2024-03-23T14:17:57;9.90;1.40
18392;DHT22;9322;50.932;5.318;2024-03-23T14:20:23;9.20;1.40
18392;DHT22;9322;50.932;5.318;2024-03-23T14:22:49;8.90;1.40
18392;DHT22;9322;50.932;5.318;2024-03-23T14:25:15;8.70;1.40
18392;DHT22;9322;50.932;5.318;2024-03-23T14:27:44;8.70;1.40
18392;DHT22;9322;50.932;5.318;2024-03-23T14:30:10;8.80;1.40
18392;DHT22;9322;50.932;5.318;2024-03-23T14:32:36;9.10;1.40
18392;DHT22;9322;50.932;5.318;2024-03-23T14:35:06;9.50;1.40
18392;DHT22;9322;50.932;5.318;2024-03-23T14:37:37;9.90;1.40
18392;DHT22;9322;50.932;5.318;2024-03-23T14:40:03;10.20;1.40
18392;DHT22;9322;50.932;5.318;2024-03-23T14:42:30;10.50;1.40
18392;DHT22;9322;50.932;5.318;2024-03-23T14:44:58;10.80;1.40
18392;DHT22;9322;50.932;5.318;2024-03-23T14:47:23;10.90;1.40
18392;DHT22;9322;50.932;5.318;2024-03-23T14:49:49;11.00;1.40
18392;DHT22;9322;50.932;5.318;2024-03-23T14:52:19;10.70;1.40
18392;DHT22;9322;50.932;5.318;2024-03-23T14:54:45;10.70;1.40
18392;DHT22;9322;50.932;5.318;2024-03-23T14:57:12;10.60;1.40
18392;DHT22;9322;50.932;5.318;2024-03-23T14:59:38;10.40;1.40
18392;DHT22;9322;50.932;5.318;2024-03-23T15:02:04;10.20;1.40
18392;DHT22;9322;50.932;5.318;2024-03-23T15:04:30;10.00;1.40
18392;DHT22;9322;50.932;5.318;2024-03-23T15:06:55;10.30;1.40
18392;DHT22;9322;50.932;5.318;2024-03-23T15:09:21;10.60;1.40
18392;DHT22;9322;50.932;5.318;2024-03-23T15:11:47;10.70;1.40
18392;DHT22;9322;50.932;5.318;2024-03-23T15:14:12;10.70;1.40
18392;DHT22;9322;50.932;5.318;2024-03-23T15:16:38;10.60;1.40
18392;DHT22;9322;50.932;5.318;2024-03-23T15:19:04;10.70;1.40
18392;DHT22;9322;50.932;5.318;2024-03-23T15:21:32;10.90;1.40
18392;DHT22;9322;50.932;5.318;2024-03-23T15:23:57;10.90;1.40
18392;DHT22;9322;50.932;5.318;2024-03-23T15:26:23;11.00;1.40
18392;DHT22;9322;50.932;5.318;2024-03-23T15:28:49;10.80;1.40
18392;DHT22;9322;50.932;5.318;2024-03-23T15:31:24;10.90;1.40
18392;DHT22;9322;50.932;5.318;2024-03-23T15:33:50;10.70;1.40
18392;DHT22;9322;50.932;5.318;2024-03-23T15:36:16;10.50;1.40
18392;DHT22;9322;50.932;5.318;2024-03-23T15:38:44;10.50;1.40
18392;DHT22;9322;50.932;5.318;2024-03-23T15:41:10;10.40;1.40
18392;DHT22;9322;50.932;5.318;2024-03-23T15:43:36;10.40;1.40
18392;DHT22;9322;50.932;5.318;2024-03-23T15:46:04;10.30;1.40
18392;DHT22;9322;50.932;5.318;2024-03-23T15:48:32;10.20;1.40
18392;DHT22;9322;50.932;5.318;2024-03-23T15:50:59;10.10;1.40
18392;DHT22;9322;50.932;5.318;2024-03-23T15:53:27;10.00;1.40
18392;DHT22;9322;50.932;5.318;2024-03-23T15:55:54;10.00;1.40
18392;DHT22;9322;50.932;5.318;2024-03-23T15:58:20;10.10;1.40
18392;DHT22;9322;50.932;5.318;2024-03-23T16:03:21;10.20;1.40
18392;DHT22;9322;50.932;5.318;2024-03-23T16:05:54;10.20;1.40
18392;DHT22;9322;50.932;5.318;2024-03-23T16:08:21;10.10;1.40
18392;DHT22;9322;50.932;5.318;2024-03-23T16:10:47;9.90;1.40
18392;DHT22;9322;50.932;5.318;2024-03-23T16:13:13;9.90;1.40
18392;DHT22;9322;50.932;5.318;2024-03-23T16:15:38;9.80;1.40
18392;DHT22;9322;50.932;5.318;2024-03-23T16:18:04;9.80;1.40
18392;DHT22;9322;50.932;5.318;2024-03-23T16:20:30;9.70;1.40
18392;DHT22;9322;50.932;5.318;2024-03-23T16:22:58;9.80;1.40
18392;DHT22;9322;50.932;5.318;2024-03-23T16:25:24;9.80;1.40
18392;DHT22;9322;50.932;5.318;2024-03-23T16:27:50;9.70;1.40
18392;DHT22;9322;50.932;5.318;2024-03-23T16:30:16;9.50;1.40
18392;DHT22;9322;50.932;5.318;2024-03-23T16:32:41;9.50;1.40
18392;DHT22;9322;50.932;5.318;2024-03-23T16:35:07;9.40;1.40
18392;DHT22;9322;50.932;5.318;2024-03-23T16:37:37;9.10;1.40
18392;DHT22;9322;50.932;5.318;2024-03-23T16:40:02;8.90;1.40
18392;DHT22;9322;50.932;5.318;2024-03-23T16:42:29;8.80;1.40
18392;DHT22;9322;50.932;5.318;2024-03-23T16:44:55;8.90;1.40
18392;DHT22;9322;50.932;5.318;2024-03-23T16:47:21;9.00;1.40
18392;DHT22;9322;50.932;5.318;2024-03-23T16:49:47;9.40;1.40
18392;DHT22;9322;50.932;5.318;2024-03-23T16:52:12;9.70;1.40
18392;DHT22;9322;50.932;5.318;2024-03-23T16:54:38;9.80;1.40
18392;DHT22;9322;50.932;5.318;2024-03-23T16:57:04;9.90;1.40
18392;DHT22;9322;50.932;5.318;2024-03-23T16:59:30;10.00;1.40
18392;DHT22;9322;50.932;5.318;2024-03-23T17:01:55;9.90;1.40
18392;DHT22;9322;50.932;5.318;2024-03-23T17:04:21;9.70;1.40
18392;DHT22;9322;50.932;5.318;2024-03-23T17:06:50;9.50;1.40
18392;DHT22;9322;50.932;5.318;2024-03-23T17:09:16;9.30;1.40
18392;DHT22;9322;50.932;5.318;2024-03-23T17:11:42;9.20;1.40